Time;durP1;ratioP1;P1;durP2;ratioP2;P2;SDS_P1;SDS_P2;PMS_P1;PMS_P2;Temp;Humidity;BMP_temperature;BMP_pressure;BME280_temperature;BME280_humidity;BME280_pressure;Samples;Min_cycle;Max_cycle;Signal;HPM_P1;HPM_P2
2022/05/21 00:02:19;;;;;;;6.80;4.37;;;14.70;99.90;;;;;;5014280;28;20466;-76
2022/05/21 00:04:46;;;;;;;9.37;5.80;;;14.80;99.90;;;;;;5015154;28;20461;-76
2022/05/21 00:07:13;;;;;;;7.70;4.90;;;14.80;99.90;;;;;;5016064;28;20459;-77
2022/05/21 00:09:40;;;;;;;9.00;6.30;;;14.70;99.90;;;;;;5014697;28;20460;-76
2022/05/21 00:12:08;;;;;;;9.00;5.97;;;14.70;99.90;;;;;;5014717;28;20449;-78
2022/05/21 00:14:35;;;;;;;7.70;5.50;;;14.70;99.90;;;;;;5016188;28;20494;-78
2022/05/21 00:17:04;;;;;;;6.60;5.00;;;14.70;99.90;;;;;;5013782;28;21032;-78
2022/05/21 00:19:31;;;;;;;6.07;5.00;;;14.60;99.90;;;;;;5015500;28;20986;-77
2022/05/21 00:21:58;;;;;;;8.13;5.30;;;14.70;99.90;;;;;;5014397;28;20481;-77
2022/05/21 00:24:25;;;;;;;9.60;6.80;;;14.80;99.90;;;;;;5015003;28;20852;-78
2022/05/21 00:26:52;;;;;;;7.90;6.23;;;14.60;99.90;;;;;;5016646;28;20971;-77
2022/05/21 00:29:20;;;;;;;8.10;7.20;;;14.60;99.90;;;;;;5015054;28;20462;-78
2022/05/21 00:31:47;;;;;;;9.40;6.57;;;14.50;99.90;;;;;;5015252;28;20557;-78
2022/05/21 00:34:15;;;;;;;10.37;7.13;;;14.50;99.90;;;;;;5014571;28;20527;-76
2022/05/21 00:36:42;;;;;;;12.23;6.33;;;14.40;99.90;;;;;;5013699;28;20465;-78
2022/05/21 00:39:09;;;;;;;10.33;7.33;;;14.30;99.90;;;;;;5012393;28;20455;-77
2022/05/21 00:41:36;;;;;;;11.87;9.10;;;14.20;99.90;;;;;;5007870;28;20853;-79
2022/05/21 00:44:06;;;;;;;11.70;9.30;;;14.10;99.90;;;;;;5013663;28;20449;-77
2022/05/21 00:46:35;;;;;;;10.17;8.40;;;14.10;99.90;;;;;;5013182;28;20454;-77
2022/05/21 00:49:07;;;;;;;9.70;8.43;;;13.90;99.90;;;;;;5015329;28;20460;-78
2022/05/21 00:51:38;;;;;;;10.43;8.03;;;13.80;99.90;;;;;;5042022;22;20584;-79
2022/05/21 00:54:06;;;;;;;12.33;8.90;;;13.80;99.90;;;;;;5034182;28;20513;-79
2022/05/21 00:56:37;;;;;;;11.37;8.20;;;13.70;99.90;;;;;;5033375;28;20522;-79
2022/05/21 01:01:52;;;;;;;8.73;7.30;;;13.70;99.90;;;;;;5017173;28;21045;-78
2022/05/21 01:04:19;;;;;;;11.90;8.50;;;13.70;99.90;;;;;;5015241;28;20450;-79
2022/05/21 01:06:48;;;;;;;11.20;8.43;;;13.60;99.90;;;;;;5023365;28;20902;-78
2022/05/21 01:09:14;;;;;;;9.30;7.77;;;13.50;99.90;;;;;;5032504;28;20830;-79
2022/05/21 01:11:41;;;;;;;9.87;8.47;;;13.40;99.90;;;;;;5016968;28;20472;-78
2022/05/21 01:14:11;;;;;;;11.10;8.40;;;13.40;99.90;;;;;;5015018;28;20491;-79
2022/05/21 01:16:39;;;;;;;12.00;8.47;;;13.30;99.90;;;;;;5023033;28;20456;-79
2022/05/21 01:19:07;;;;;;;13.33;8.63;;;13.20;99.90;;;;;;5034496;28;20452;-77
2022/05/21 01:21:35;;;;;;;8.77;7.67;;;13.20;99.90;;;;;;5016648;28;20471;-78
2022/05/21 01:24:05;;;;;;;12.07;8.20;;;13.30;99.90;;;;;;5025123;28;20455;-79
2022/05/21 01:26:34;;;;;;;12.10;9.10;;;13.10;99.90;;;;;;5013638;28;20556;-78
2022/05/21 01:29:03;;;;;;;12.10;8.37;;;13.10;99.90;;;;;;5014584;28;20456;-79
2022/05/21 01:31:32;;;;;;;11.77;8.70;;;13.10;99.90;;;;;;5013902;28;20482;-78
2022/05/21 01:34:00;;;;;;;14.30;8.80;;;13.10;99.90;;;;;;5014457;28;20914;-78
2022/05/21 01:36:27;;;;;;;10.30;7.87;;;13.10;99.90;;;;;;5014780;28;20852;-80
2022/05/21 01:38:54;;;;;;;10.33;8.07;;;13.10;99.90;;;;;;5015210;28;20456;-79
2022/05/21 01:41:22;;;;;;;10.20;7.03;;;13.00;99.90;;;;;;5014444;28;20476;-79
2022/05/21 01:46:29;;;;;;;12.53;6.80;;;12.90;99.90;;;;;;4992464;28;20957;-79
2022/05/21 01:48:56;;;;;;;13.43;6.70;;;12.90;99.90;;;;;;5015176;28;20448;-79
2022/05/21 01:51:23;;;;;;;9.10;6.50;;;12.90;99.90;;;;;;5015529;28;20988;-78
2022/05/21 01:53:50;;;;;;;9.37;6.50;;;12.90;99.90;;;;;;5016018;28;21032;-78
2022/05/21 01:56:17;;;;;;;8.40;6.00;;;12.90;99.90;;;;;;5015990;28;20796;-79
2022/05/21 01:58:45;;;;;;;7.10;6.40;;;13.00;99.90;;;;;;5016010;28;20464;-79
2022/05/21 02:01:13;;;;;;;8.63;6.67;;;13.00;99.90;;;;;;5018017;28;20479;-78
2022/05/21 02:03:40;;;;;;;8.20;6.20;;;13.10;99.90;;;;;;5016570;28;20459;-78
2022/05/21 02:06:08;;;;;;;9.27;6.77;;;13.20;99.90;;;;;;5014263;28;20450;-78
2022/05/21 02:08:35;;;;;;;6.80;5.13;;;13.20;99.90;;;;;;5015876;28;20454;-78
2022/05/21 02:11:03;;;;;;;10.93;5.17;;;13.30;99.90;;;;;;5014554;28;21005;-78
2022/05/21 02:13:32;;;;;;;7.10;6.00;;;13.30;99.90;;;;;;5021542;28;20567;-78
2022/05/21 02:16:00;;;;;;;7.93;4.90;;;13.30;99.90;;;;;;5004487;28;20469;-78
2022/05/21 02:18:28;;;;;;;6.53;4.53;;;13.40;99.90;;;;;;5013616;28;21038;-78
2022/05/21 02:20:55;;;;;;;8.37;5.40;;;13.50;99.90;;;;;;5017483;28;20460;-78
2022/05/21 02:23:23;;;;;;;6.43;4.77;;;13.60;99.90;;;;;;5001488;28;20460;-78
2022/05/21 02:25:50;;;;;;;5.80;4.20;;;13.60;99.90;;;;;;5016169;28;20973;-78
2022/05/21 02:28:17;;;;;;;7.57;4.77;;;13.70;99.90;;;;;;5016307;28;20862;-77
2022/05/21 02:30:45;;;;;;;7.50;5.50;;;13.70;99.90;;;;;;5015724;28;20442;-81
2022/05/21 02:33:13;;;;;;;4.93;4.43;;;13.70;99.90;;;;;;5017218;28;20211;-80
2022/05/21 02:35:40;;;;;;;6.57;4.37;;;13.80;99.90;;;;;;5017329;28;20463;-80
2022/05/21 02:40:51;;;;;;;6.50;3.87;;;13.80;99.90;;;;;;5015752;28;20496;-79
2022/05/21 02:43:18;;;;;;;7.20;3.80;;;13.90;99.90;;;;;;5018768;28;20460;-79
2022/05/21 02:45:45;;;;;;;7.80;4.60;;;13.90;99.90;;;;;;5015591;28;21020;-78
2022/05/21 02:48:13;;;;;;;5.47;4.10;;;14.00;99.90;;;;;;5017261;28;20457;-78
2022/05/21 02:50:41;;;;;;;5.50;4.03;;;14.00;99.90;;;;;;5016989;28;20461;-80
2022/05/21 02:53:14;;;;;;;10.87;5.50;;;14.00;99.90;;;;;;5017133;28;20452;-81
2022/05/21 02:55:41;;;;;;;8.60;4.57;;;13.90;99.90;;;;;;5019011;28;20437;-79
2022/05/21 02:58:08;;;;;;;5.33;3.97;;;13.90;99.90;;;;;;5017535;28;20449;-79
2022/05/21 03:00:35;;;;;;;8.13;3.70;;;13.80;99.90;;;;;;5018912;28;20451;-80
2022/05/21 03:03:02;;;;;;;6.13;3.93;;;13.90;99.90;;;;;;5032366;28;20464;-80
2022/05/21 03:05:31;;;;;;;6.57;3.50;;;13.90;99.90;;;;;;5014836;28;20469;-78
2022/05/21 03:08:00;;;;;;;7.27;3.47;;;14.00;99.90;;;;;;5038570;28;20461;-79
2022/05/21 03:10:28;;;;;;;8.47;4.10;;;14.00;99.90;;;;;;5020131;28;20884;-79
2022/05/21 03:12:57;;;;;;;5.67;4.23;;;14.00;99.90;;;;;;5031618;28;20467;-79
2022/05/21 03:15:29;;;;;;;7.13;4.07;;;14.00;99.90;;;;;;5017914;28;20484;-78
2022/05/21 03:17:57;;;;;;;7.20;5.00;;;14.10;99.90;;;;;;5016386;28;20458;-78
2022/05/21 03:20:23;;;;;;;6.70;5.30;;;14.00;99.90;;;;;;5019549;28;20970;-78
2022/05/21 03:22:52;;;;;;;8.87;5.50;;;14.00;99.90;;;;;;5031162;28;20473;-79
2022/05/21 03:25:19;;;;;;;12.27;5.30;;;14.00;99.90;;;;;;5019892;28;20810;-78
2022/05/21 03:27:46;;;;;;;7.33;5.70;;;14.00;99.90;;;;;;5017518;28;20464;-78
2022/05/21 03:30:16;;;;;;;7.10;5.80;;;14.00;99.90;;;;;;5029560;28;20482;-79
2022/05/21 03:32:43;;;;;;;7.00;5.53;;;13.90;99.90;;;;;;5025387;28;21008;-78
2022/05/21 03:35:11;;;;;;;6.37;5.43;;;13.90;99.90;;;;;;5031052;28;20494;-79
2022/05/21 03:37:38;;;;;;;6.97;5.37;;;14.00;99.90;;;;;;5037619;28;20534;-79
2022/05/21 03:40:10;;;;;;;7.10;6.30;;;14.00;99.90;;;;;;5019424;28;20954;-78
2022/05/21 03:42:38;;;;;;;7.70;5.40;;;14.00;99.90;;;;;;5032988;28;20475;-79
2022/05/21 03:45:06;;;;;;;8.70;5.77;;;14.00;99.90;;;;;;5034044;28;20991;-80
2022/05/21 03:47:33;;;;;;;7.57;6.30;;;14.00;99.90;;;;;;5024901;28;20544;-81
2022/05/21 03:50:00;;;;;;;7.83;5.83;;;14.00;99.90;;;;;;5026294;28;20465;-80
2022/05/21 03:52:26;;;;;;;7.07;5.13;;;14.00;99.90;;;;;;5029282;28;20489;-79
2022/05/21 03:54:53;;;;;;;10.83;5.73;;;14.00;99.90;;;;;;5025443;28;20485;-80
2022/05/21 03:57:22;;;;;;;8.60;6.63;;;14.00;99.90;;;;;;5021777;28;20453;-78
2022/05/21 03:59:48;;;;;;;8.77;6.33;;;14.00;99.90;;;;;;5041080;28;20453;-78
2022/05/21 04:02:15;;;;;;;9.40;7.03;;;14.00;99.90;;;;;;5031955;28;20484;-80
2022/05/21 04:04:42;;;;;;;8.93;7.37;;;14.00;99.90;;;;;;5022034;28;20970;-78
2022/05/21 04:07:09;;;;;;;12.03;6.83;;;14.00;99.90;;;;;;5029840;28;20482;-78
2022/05/21 04:09:36;;;;;;;8.70;7.00;;;14.00;99.90;;;;;;5033680;28;20465;-79
2022/05/21 04:12:04;;;;;;;8.20;7.10;;;13.90;99.90;;;;;;5027392;28;20468;-79
2022/05/21 04:14:35;;;;;;;9.23;6.47;;;13.90;99.90;;;;;;4999535;28;21041;-79
2022/05/21 04:17:04;;;;;;;8.33;7.00;;;14.00;99.90;;;;;;5019174;28;20464;-78
2022/05/21 04:19:31;;;;;;;10.93;7.20;;;14.00;99.90;;;;;;5020937;28;20450;-80
2022/05/21 04:21:58;;;;;;;11.87;7.43;;;14.00;99.90;;;;;;5038287;28;21002;-82
2022/05/21 04:24:28;;;;;;;9.83;6.67;;;14.00;99.90;;;;;;5031862;28;20448;-79
2022/05/21 04:26:55;;;;;;;12.27;6.33;;;14.00;99.90;;;;;;5030703;28;20453;-80
2022/05/21 04:29:22;;;;;;;12.87;7.10;;;14.00;99.90;;;;;;5034036;28;20460;-80
2022/05/21 04:31:50;;;;;;;10.13;7.83;;;14.00;99.90;;;;;;5033146;28;21058;-79
2022/05/21 04:34:17;;;;;;;9.80;6.70;;;14.00;99.90;;;;;;5032311;28;20478;-80
2022/05/21 04:36:46;;;;;;;13.10;7.10;;;14.10;99.90;;;;;;5032093;28;20462;-80
2022/05/21 04:39:14;;;;;;;9.27;8.27;;;14.10;99.90;;;;;;5032356;28;20450;-80
2022/05/21 04:41:41;;;;;;;15.27;9.40;;;14.10;99.90;;;;;;5033589;28;20464;-82
2022/05/21 04:44:09;;;;;;;9.80;7.17;;;14.00;99.90;;;;;;5036925;28;20448;-80
2022/05/21 04:46:36;;;;;;;11.30;7.53;;;14.10;99.90;;;;;;5035685;28;20483;-81
2022/05/21 04:49:04;;;;;;;12.20;7.50;;;14.10;99.90;;;;;;5036187;28;20453;-84
2022/05/21 04:51:40;;;;;;;11.50;8.23;;;14.10;99.90;;;;;;5034910;28;20482;-78
2022/05/21 04:54:06;;;;;;;11.03;7.30;;;14.10;99.90;;;;;;5036097;28;20441;-79
2022/05/21 04:56:34;;;;;;;11.83;7.90;;;14.10;99.90;;;;;;5033796;28;20445;-80
2022/05/21 04:59:01;;;;;;;14.13;7.87;;;14.00;99.90;;;;;;5036750;28;20439;-81
2022/05/21 05:01:30;;;;;;;17.30;7.90;;;14.00;99.90;;;;;;5033828;28;20489;-79
2022/05/21 05:03:58;;;;;;;14.47;7.53;;;14.10;99.90;;;;;;5039002;28;20477;-83
2022/05/21 05:06:26;;;;;;;11.83;6.67;;;14.10;99.90;;;;;;5034616;28;20471;-82
2022/05/21 05:08:53;;;;;;;12.47;6.93;;;14.10;99.90;;;;;;5037837;28;20454;-81
2022/05/21 05:11:19;;;;;;;11.70;7.80;;;14.20;99.90;;;;;;5040785;28;20821;-80
2022/05/21 05:13:49;;;;;;;10.87;7.17;;;14.10;99.90;;;;;;5029340;28;20441;-81
2022/05/21 05:16:16;;;;;;;12.70;7.93;;;14.20;99.90;;;;;;5026352;28;20480;-80
2022/05/21 05:18:43;;;;;;;12.50;7.63;;;14.20;99.90;;;;;;5022050;28;20462;-81
2022/05/21 05:21:09;;;;;;;7.73;6.50;;;14.30;99.90;;;;;;5037910;28;20474;-80
2022/05/21 05:23:37;;;;;;;10.83;7.87;;;14.40;99.90;;;;;;5038205;28;20827;-79
2022/05/21 05:26:04;;;;;;;16.10;9.10;;;14.40;99.90;;;;;;5032163;28;20452;-79
2022/05/21 05:28:31;;;;;;;11.43;7.37;;;14.40;99.90;;;;;;5018029;28;20542;-81
2022/05/21 05:30:58;;;;;;;8.53;7.37;;;14.50;99.90;;;;;;5019202;28;20963;-80
2022/05/21 05:33:26;;;;;;;10.87;8.27;;;14.60;99.90;;;;;;5021879;28;20544;-79
2022/05/21 05:35:54;;;;;;;10.03;7.07;;;14.80;99.90;;;;;;5019173;28;20492;-79
2022/05/21 05:38:22;;;;;;;12.70;7.07;;;14.60;99.90;;;;;;5025582;28;20459;-79
2022/05/21 05:40:52;;;;;;;8.17;6.50;;;14.60;99.90;;;;;;5036806;28;20483;-81
2022/05/21 05:43:21;;;;;;;10.10;6.50;;;14.60;99.90;;;;;;5036969;28;20459;-79
2022/05/21 05:45:49;;;;;;;10.43;6.53;;;14.60;99.90;;;;;;5023122;28;21187;-79
2022/05/21 05:48:16;;;;;;;9.43;6.43;;;14.50;99.90;;;;;;5019293;28;20457;-80
2022/05/21 05:50:43;;;;;;;13.53;6.10;;;14.60;99.90;;;;;;5029600;28;20462;-79
2022/05/21 05:53:09;;;;;;;10.90;5.57;;;14.70;99.90;;;;;;5039844;28;20455;-79
2022/05/21 05:55:36;;;;;;;12.00;6.40;;;14.70;99.90;;;;;;5038930;28;20506;-81
2022/05/21 05:59:48;;;;;;;8.37;5.10;;;14.80;99.90;;;;;;5040540;28;20499;-80
2022/05/21 06:00:52;;;;;;;14.73;5.57;;;14.90;99.90;;;;;;5041065;28;20587;-79
2022/05/21 06:03:20;;;;;;;8.20;5.57;;;15.00;99.90;;;;;;5040137;28;20539;-81
2022/05/21 06:05:49;;;;;;;8.57;5.10;;;15.10;99.90;;;;;;5038295;28;20462;-78
2022/05/21 06:08:16;;;;;;;12.53;6.93;;;15.30;99.90;;;;;;5020220;28;20530;-78
2022/05/21 06:10:45;;;;;;;13.23;6.37;;;15.40;99.90;;;;;;5032178;28;20452;-81
2022/05/21 06:13:14;;;;;;;9.83;5.97;;;15.40;99.90;;;;;;5041745;28;20462;-79
2022/05/21 06:15:41;;;;;;;16.67;7.67;;;15.20;99.90;;;;;;5038713;28;20490;-79
2022/05/21 06:18:09;;;;;;;8.07;6.00;;;15.20;99.90;;;;;;5018293;28;20465;-79
2022/05/21 06:20:37;;;;;;;8.77;6.07;;;15.20;99.90;;;;;;5031078;28;20468;-79
2022/05/21 06:23:04;;;;;;;11.93;5.70;;;15.20;99.90;;;;;;5040383;28;20521;-80
2022/05/21 06:25:33;;;;;;;8.73;6.30;;;15.20;99.90;;;;;;5038414;28;20460;-79
2022/05/21 06:28:01;;;;;;;11.93;7.23;;;15.30;99.90;;;;;;5032559;28;20450;-78
2022/05/21 06:30:31;;;;;;;12.77;7.13;;;15.10;99.90;;;;;;5023745;28;20972;-77
2022/05/21 06:32:59;;;;;;;11.30;6.90;;;15.10;99.90;;;;;;5023682;28;20483;-79
2022/05/21 06:35:27;;;;;;;10.37;6.10;;;15.20;99.90;;;;;;5024638;28;20485;-80
2022/05/21 06:37:54;;;;;;;10.20;6.40;;;15.30;99.90;;;;;;5025326;28;20453;-78
2022/05/21 06:40:21;;;;;;;11.97;7.10;;;15.30;99.90;;;;;;5028807;28;20549;-79
2022/05/21 06:42:48;;;;;;;10.40;6.17;;;15.30;99.90;;;;;;5026610;28;20499;-79
2022/05/21 06:45:15;;;;;;;10.43;6.70;;;15.40;99.90;;;;;;5024825;28;20444;-80
2022/05/21 06:47:43;;;;;;;7.03;5.73;;;15.40;99.90;;;;;;5025722;28;20482;-79
2022/05/21 06:50:11;;;;;;;10.03;6.50;;;15.50;99.90;;;;;;5024439;28;20453;-80
2022/05/21 06:52:39;;;;;;;12.80;7.03;;;15.60;99.90;;;;;;5030053;28;20486;-79
2022/05/21 06:55:07;;;;;;;10.43;6.83;;;15.70;99.90;;;;;;5017302;28;20490;-78
2022/05/21 06:57:34;;;;;;;9.30;5.70;;;15.60;99.90;;;;;;5022805;28;20481;-78
2022/05/21 07:00:01;;;;;;;8.10;6.00;;;15.60;99.90;;;;;;5023196;28;20483;-80
2022/05/21 07:02:28;;;;;;;9.00;5.80;;;15.50;99.90;;;;;;5023632;28;20555;-78
2022/05/21 07:07:44;;;;;;;12.40;7.07;;;15.30;99.90;;;;;;5040457;28;20450;-79
2022/05/21 07:10:17;;;;;;;11.30;6.13;;;15.30;99.90;;;;;;5047328;28;20497;-79
2022/05/21 07:12:45;;;;;;;13.57;7.27;;;15.30;99.90;;;;;;5038992;28;20467;-80
2022/05/21 07:15:12;;;;;;;10.00;6.40;;;15.20;99.90;;;;;;5047610;28;20582;-78
2022/05/21 07:17:39;;;;;;;12.00;7.13;;;15.20;99.90;;;;;;5048318;28;20928;-78
2022/05/21 07:20:11;;;;;;;8.63;5.80;;;15.10;99.90;;;;;;5047100;28;20450;-80
2022/05/21 07:22:42;;;;;;;12.23;5.87;;;15.10;99.90;;;;;;5036923;28;20564;-79
2022/05/21 07:25:10;;;;;;;9.60;6.20;;;15.20;99.90;;;;;;5035342;28;20443;-80
2022/05/21 07:27:36;;;;;;;10.80;5.97;;;15.40;99.90;;;;;;5027677;28;20442;-78
2022/05/21 07:30:04;;;;;;;9.90;6.53;;;15.40;99.90;;;;;;5062379;22;20492;-80
2022/05/21 07:32:31;;;;;;;12.33;6.63;;;15.50;99.90;;;;;;5035178;28;20481;-81
2022/05/21 07:34:59;;;;;;;10.50;6.70;;;15.60;99.90;;;;;;5041001;28;20504;-80
2022/05/21 07:37:27;;;;;;;9.03;5.87;;;15.70;99.90;;;;;;5040697;28;20464;-80
2022/05/21 07:39:54;;;;;;;11.13;6.13;;;15.80;99.90;;;;;;5040785;28;20469;-80
2022/05/21 07:42:22;;;;;;;8.20;5.23;;;15.80;99.90;;;;;;5031094;28;20490;-81
2022/05/21 07:44:48;;;;;;;8.13;5.10;;;16.00;99.90;;;;;;5040540;28;20453;-81
2022/05/21 07:47:15;;;;;;;7.97;5.30;;;16.00;99.90;;;;;;5026326;28;20466;-80
2022/05/21 07:49:42;;;;;;;9.23;6.50;;;16.00;99.90;;;;;;5019339;28;20546;-80
2022/05/21 07:52:10;;;;;;;9.10;6.33;;;15.80;99.90;;;;;;5020739;28;20459;-81
2022/05/21 07:54:38;;;;;;;11.93;6.03;;;15.90;99.90;;;;;;5018543;28;20551;-80
2022/05/21 07:57:05;;;;;;;12.30;6.70;;;15.90;99.90;;;;;;5013468;28;20483;-80
2022/05/21 07:59:32;;;;;;;13.73;6.20;;;16.00;99.90;;;;;;5019441;28;20558;-81
2022/05/21 08:01:59;;;;;;;11.37;5.93;;;16.10;99.90;;;;;;5032114;28;20461;-81
2022/05/21 08:04:26;;;;;;;12.93;6.53;;;16.10;99.90;;;;;;5040222;28;20521;-80
2022/05/21 08:06:53;;;;;;;12.30;4.90;;;16.30;99.90;;;;;;5027334;28;20546;-81
2022/05/21 08:09:21;;;;;;;8.17;5.27;;;16.30;99.90;;;;;;5019294;28;20507;-80
2022/05/21 08:11:49;;;;;;;5.90;4.97;;;16.40;99.90;;;;;;5020248;28;20955;-81
2022/05/21 08:14:18;;;;;;;9.77;5.87;;;16.50;99.90;;;;;;5019202;28;20456;-80
2022/05/21 08:16:45;;;;;;;9.60;6.53;;;16.60;99.90;;;;;;5029817;28;20488;-80
2022/05/21 08:19:12;;;;;;;9.10;5.93;;;16.50;99.90;;;;;;5038491;28;20483;-80
2022/05/21 08:21:39;;;;;;;12.87;5.60;;;16.40;99.90;;;;;;5037780;28;20524;-81
2022/05/21 08:26:59;;;;;;;9.43;5.10;;;16.50;99.90;;;;;;5031471;28;20444;-81
2022/05/21 08:29:27;;;;;;;8.73;6.50;;;16.60;99.90;;;;;;5018442;28;20524;-81
2022/05/21 08:31:54;;;;;;;11.20;6.40;;;16.70;99.90;;;;;;5019052;28;20456;-81
2022/05/21 08:34:21;;;;;;;10.93;6.50;;;16.70;99.90;;;;;;5018856;28;20465;-81
2022/05/21 08:36:48;;;;;;;12.20;6.17;;;16.80;99.90;;;;;;5018070;28;21004;-80
2022/05/21 08:39:15;;;;;;;13.27;7.10;;;16.80;99.90;;;;;;5019356;28;20474;-81
2022/05/21 08:41:46;;;;;;;9.20;5.63;;;16.60;99.90;;;;;;5019798;28;20820;-80
2022/05/21 08:44:20;;;;;;;8.47;6.10;;;16.50;99.90;;;;;;5017778;28;20454;-79
2022/05/21 08:47:04;;;;;;;11.03;6.40;;;16.50;99.90;;;;;;5016374;28;20455;-78
2022/05/21 08:49:36;;;;;;;11.40;5.80;;;16.80;99.90;;;;;;5016565;28;20469;-80
2022/05/21 08:52:15;;;;;;;12.67;6.73;;;17.10;99.90;;;;;;5016597;28;20462;-80
2022/05/21 08:54:44;;;;;;;10.73;7.03;;;17.40;99.90;;;;;;5017284;28;20511;-80
2022/05/21 08:57:16;;;;;;;9.43;6.50;;;17.60;99.90;;;;;;5016592;28;20488;-79
2022/05/21 09:00:03;;;;;;;11.90;6.50;;;17.50;99.90;;;;;;5016209;28;20470;-79
2022/05/21 09:02:34;;;;;;;10.47;6.07;;;17.30;99.90;;;;;;5028610;28;20466;-80
2022/05/21 09:05:02;;;;;;;11.07;7.10;;;17.20;99.90;;;;;;5017784;28;20464;-81
2022/05/21 09:07:39;;;;;;;8.03;6.10;;;17.10;99.90;;;;;;5018065;28;20460;-79
2022/05/21 09:10:20;;;;;;;12.43;7.60;;;17.00;99.90;;;;;;5016958;28;20484;-80
2022/05/21 09:12:57;;;;;;;12.97;6.80;;;16.80;99.90;;;;;;5017988;28;20455;-80
2022/05/21 09:18:14;;;;;;;11.77;7.60;;;16.60;99.90;;;;;;4996538;28;20476;-80
2022/05/21 09:20:49;;;;;;;11.57;6.80;;;16.80;99.90;;;;;;5005828;28;20483;-80
2022/05/21 09:23:16;;;;;;;10.60;8.10;;;16.80;99.90;;;;;;5023776;28;20895;-79
2022/05/21 09:25:42;;;;;;;11.83;8.00;;;16.80;99.90;;;;;;5032059;28;20453;-80
2022/05/21 09:28:11;;;;;;;9.90;7.60;;;16.70;99.90;;;;;;5033838;28;20460;-80
2022/05/21 09:30:42;;;;;;;11.17;7.70;;;17.00;99.90;;;;;;5033659;28;20550;-81
2022/05/21 09:33:23;;;;;;;11.83;8.33;;;17.70;99.90;;;;;;5023863;28;20492;-80
2022/05/21 09:35:53;;;;;;;12.13;7.43;;;18.60;99.90;;;;;;5017147;28;20485;-80
2022/05/21 09:38:23;;;;;;;11.60;6.60;;;18.90;99.90;;;;;;5035528;28;20460;-80
2022/05/21 09:40:50;;;;;;;15.43;7.63;;;18.60;99.90;;;;;;5033211;28;20475;-81
2022/05/21 09:46:20;;;;;;;14.73;7.57;;;18.60;99.90;;;;;;5019530;28;20477;-81
2022/05/21 09:48:47;;;;;;;10.13;6.40;;;19.20;99.90;;;;;;5020160;28;20531;-81
2022/05/21 09:51:30;;;;;;;9.43;6.97;;;19.90;99.90;;;;;;5019794;28;20457;-81
2022/05/21 09:53:58;;;;;;;10.00;5.80;;;20.50;99.90;;;;;;5023225;28;20541;-81
2022/05/21 09:56:27;;;;;;;10.73;5.70;;;21.90;99.90;;;;;;5019040;28;20481;-81
2022/05/21 09:59:11;;;;;;;10.97;5.80;;;22.50;99.90;;;;;;5017522;28;20473;-82
2022/05/21 10:01:41;;;;;;;8.90;6.03;;;23.30;99.90;;;;;;5027325;28;20456;-81
2022/05/21 10:04:15;;;;;;;10.77;6.23;;;23.50;99.90;;;;;;5021049;28;20496;-81
2022/05/21 10:06:46;;;;;;;10.57;4.67;;;23.60;99.90;;;;;;5017746;28;20446;-81
2022/05/21 10:12:07;;;;;;;12.80;5.40;;;23.70;99.90;;;;;;5016361;28;20448;-81
2022/05/21 10:14:38;;;;;;;12.90;5.63;;;23.80;99.90;;;;;;4999851;28;20540;-81
2022/05/21 10:17:10;;;;;;;7.80;4.10;;;24.50;99.90;;;;;;5015782;28;20488;-80
2022/05/21 10:19:46;;;;;;;7.10;4.40;;;25.30;99.90;;;;;;5017584;28;20478;-82
2022/05/21 10:22:26;;;;;;;8.80;4.17;;;26.30;99.90;;;;;;5018847;28;20544;-81
2022/05/21 10:25:01;;;;;;;7.50;4.57;;;26.50;94.90;;;;;;5034243;28;21006;-79
2022/05/21 10:27:54;;;;;;;8.40;4.60;;;25.60;91.80;;;;;;5027923;28;20457;-80
2022/05/21 10:30:26;;;;;;;7.20;3.97;;;25.60;92.00;;;;;;5016813;28;20481;-81
2022/05/21 10:33:23;;;;;;;7.93;4.67;;;25.40;93.80;;;;;;5030119;28;20926;-81
2022/05/21 10:36:09;;;;;;;8.83;4.63;;;24.60;90.30;;;;;;5016806;28;20481;-81
2022/05/21 10:38:50;;;;;;;7.13;4.73;;;24.00;93.60;;;;;;5016283;28;20454;-81
2022/05/21 10:41:31;;;;;;;6.47;4.40;;;23.10;99.90;;;;;;5016679;28;20472;-82
2022/05/21 10:44:09;;;;;;;8.40;4.70;;;22.80;99.90;;;;;;5019141;28;20445;-82
2022/05/21 10:46:46;;;;;;;11.57;6.60;;;22.10;99.90;;;;;;5020925;28;20477;-81
2022/05/21 10:49:39;;;;;;;7.30;4.27;;;21.70;99.90;;;;;;5020393;28;20488;-81
2022/05/21 10:52:15;;;;;;;7.90;6.57;;;21.40;99.90;;;;;;5020463;28;20455;-81
2022/05/21 10:54:55;;;;;;;9.20;4.37;;;21.00;99.90;;;;;;5019943;28;20959;-80
2022/05/21 10:57:32;;;;;;;9.10;4.70;;;21.10;99.90;;;;;;5017590;28;20495;-81
2022/05/21 11:00:06;;;;;;;14.70;5.30;;;21.30;99.90;;;;;;5017111;28;20477;-80
2022/05/21 11:03:14;;;;;;;8.50;5.00;;;21.20;99.90;;;;;;5017447;28;20468;-80
2022/05/21 11:06:07;;;;;;;9.30;5.10;;;20.70;99.90;;;;;;5019779;28;20456;-81
2022/05/21 11:08:42;;;;;;;12.40;6.17;;;20.20;99.90;;;;;;5022049;28;20524;-81
2022/05/21 11:11:13;;;;;;;9.63;5.20;;;20.00;99.90;;;;;;5020150;28;20982;-81
2022/05/21 11:13:57;;;;;;;10.67;5.43;;;19.60;99.90;;;;;;5032278;28;20968;-81
2022/05/21 11:16:29;;;;;;;12.80;5.60;;;19.60;99.90;;;;;;5020131;28;20485;-80
2022/05/21 11:19:00;;;;;;;11.07;5.90;;;20.00;99.90;;;;;;5018354;28;20632;-80
2022/05/21 11:21:34;;;;;;;9.33;5.60;;;20.30;99.90;;;;;;5022532;28;20470;-80
2022/05/21 11:24:06;;;;;;;6.30;4.30;;;20.70;99.90;;;;;;5027918;28;20460;-80
2022/05/21 11:26:38;;;;;;;11.83;5.13;;;20.80;99.90;;;;;;5018510;28;20449;-81
2022/05/21 11:29:11;;;;;;;8.73;4.50;;;20.70;99.90;;;;;;5018613;28;20484;-81
2022/05/21 11:37:23;;;;;;;10.53;4.47;;;20.60;99.90;;;;;;4993197;28;20517;-82
2022/05/21 11:39:52;;;;;;;9.73;5.40;;;20.20;99.90;;;;;;5020526;28;21064;-81
2022/05/21 11:42:22;;;;;;;9.23;4.80;;;19.90;99.90;;;;;;5021702;28;20541;-81
2022/05/21 11:44:59;;;;;;;7.80;4.30;;;20.10;99.90;;;;;;5038978;28;20462;-81
2022/05/21 11:47:52;;;;;;;6.40;4.00;;;20.60;99.90;;;;;;5040252;28;20449;-82
2022/05/21 11:50:25;;;;;;;8.03;3.90;;;21.30;99.90;;;;;;5039562;28;20461;-82
2022/05/21 11:53:10;;;;;;;10.17;4.60;;;22.00;99.90;;;;;;5033497;28;20454;-82
2022/05/21 11:56:00;;;;;;;7.73;4.97;;;22.70;99.90;;;;;;5020408;28;20453;-82
2022/05/21 11:59:00;;;;;;;8.73;3.67;;;23.60;99.90;;;;;;5021411;28;20457;-82
2022/05/21 12:02:10;;;;;;;9.17;4.20;;;24.70;99.90;;;;;;5020762;28;20461;-82
2022/05/21 12:04:55;;;;;;;9.17;4.63;;;25.90;99.90;;;;;;5005542;28;20472;-81
2022/05/21 12:08:01;;;;;;;12.70;5.13;;;25.30;99.90;;;;;;5036832;28;20449;-83
2022/05/21 12:10:52;;;;;;;8.57;3.77;;;24.10;99.90;;;;;;5027571;28;20479;-81
2022/05/21 12:13:22;;;;;;;9.57;4.30;;;23.80;99.90;;;;;;5009134;28;20531;-82
2022/05/21 12:15:50;;;;;;;10.57;4.03;;;22.90;99.90;;;;;;4999249;28;20847;-83
2022/05/21 12:18:40;;;;;;;7.50;4.33;;;24.30;99.90;;;;;;5018969;28;20492;-81
2022/05/21 12:21:09;;;;;;;8.17;3.50;;;25.60;99.50;;;;;;5019293;28;20545;-83
2022/05/21 12:24:05;;;;;;;9.53;4.80;;;24.90;96.70;;;;;;5016309;28;20826;-81
2022/05/21 12:26:35;;;;;;;6.20;3.57;;;25.90;98.30;;;;;;5008519;28;20446;-82
2022/05/21 12:29:10;;;;;;;6.87;4.23;;;27.70;94.40;;;;;;5001216;28;20481;-82
2022/05/21 12:31:42;;;;;;;8.37;4.07;;;26.60;86.80;;;;;;5001546;28;20458;-82
2022/05/21 12:34:41;;;;;;;6.10;3.43;;;25.90;90.60;;;;;;5001776;28;20462;-81
2022/05/21 12:37:18;;;;;;;7.27;4.03;;;25.20;91.50;;;;;;5009557;28;20513;-82
2022/05/21 12:39:59;;;;;;;8.00;4.53;;;24.60;95.30;;;;;;5004390;28;20497;-82
2022/05/21 12:42:35;;;;;;;6.50;4.10;;;23.90;96.10;;;;;;5006376;28;20528;-81
2022/05/21 12:45:02;;;;;;;7.53;4.10;;;23.40;95.10;;;;;;5008006;28;20442;-81
2022/05/21 12:47:31;;;;;;;5.93;3.57;;;23.30;99.90;;;;;;5012240;28;20484;-81
2022/05/21 12:50:01;;;;;;;6.90;3.40;;;24.50;98.40;;;;;;5010244;28;21074;-83
2022/05/21 12:52:32;;;;;;;5.20;3.53;;;24.90;93.50;;;;;;5007630;28;20534;-82
2022/05/21 12:55:25;;;;;;;11.83;6.43;;;25.00;97.40;;;;;;5010866;28;20441;-82
2022/05/21 12:57:55;;;;;;;7.30;4.43;;;24.80;97.90;;;;;;4979240;28;20484;-82
2022/05/21 13:00:23;;;;;;;9.90;4.27;;;24.40;94.70;;;;;;5004871;28;20470;-82
2022/05/21 13:02:52;;;;;;;7.57;3.83;;;23.70;94.60;;;;;;5006145;28;20534;-82
2022/05/21 13:05:23;;;;;;;6.80;4.00;;;23.20;97.60;;;;;;5009726;28;20476;-82
2022/05/21 13:07:52;;;;;;;8.73;4.83;;;23.20;99.90;;;;;;5005392;28;20502;-82
2022/05/21 13:10:23;;;;;;;8.43;3.53;;;22.60;99.90;;;;;;5008345;28;20469;-82
2022/05/21 13:12:54;;;;;;;10.50;4.30;;;22.20;99.90;;;;;;5008961;28;20446;-82
2022/05/21 13:15:26;;;;;;;9.47;5.40;;;21.70;99.90;;;;;;5009923;28;20962;-82
2022/05/21 13:18:05;;;;;;;8.03;4.10;;;21.30;99.90;;;;;;4999705;28;20532;-82
2022/05/21 13:20:39;;;;;;;10.50;3.97;;;21.30;99.90;;;;;;5001354;28;20538;-81
2022/05/21 13:23:46;;;;;;;9.53;4.17;;;21.50;99.90;;;;;;5004064;28;20518;-81
2022/05/21 13:26:20;;;;;;;6.90;3.87;;;22.20;99.90;;;;;;4971078;28;20454;-82
2022/05/21 13:28:48;;;;;;;9.13;3.60;;;25.00;99.90;;;;;;5000232;28;20482;-82
2022/05/21 13:31:17;;;;;;;5.20;3.50;;;27.50;99.10;;;;;;4996726;22;20508;-80